Time;durP1;ratioP1;P1;durP2;ratioP2;P2;SDS_P1;SDS_P2;PMS_P1;PMS_P2;Temp;Humidity;BMP_temperature;BMP_pressure;BME280_temperature;BME280_humidity;BME280_pressure;Samples;Min_cycle;Max_cycle;Signal;HPM_P1;HPM_P2
2022/03/13 00:00:30;;;;;;;;;;;;;;;16.23;50.18;101115.75;1012838;29;615;-70
2022/03/13 00:01:22;;;;;;;;;;;;;;;16.21;50.09;101109.66;1012782;29;670;-71
2022/03/13 00:02:15;;;;;;;;;;;;;;;16.21;50.25;101115.03;1012682;29;635;-71
2022/03/13 00:03:06;;;;;;;;;;;;;;;16.22;50.45;101111.38;1012741;29;679;-71
2022/03/13 00:03:57;;;;;;;;;;;;;;;16.22;50.37;101105.13;1013016;29;698;-71
2022/03/13 00:04:51;;;;;;;;;;;;;;;16.21;50.33;101117.72;1012569;29;631;-71
2022/03/13 00:05:41;;;;;;;;;;;;;;;16.21;50.24;101111.50;1013018;29;693;-71
2022/03/13 00:06:32;;;;;;;;;;;;;;;16.21;50.35;101112.34;1013022;29;631;-71
2022/03/13 00:07:25;;;;;;;;;;;;;;;16.20;50.17;101117.84;1010659;29;687;-71
2022/03/13 00:08:16;;;;;;;;;;;;;;;16.20;50.51;101118.69;1011940;29;1212;-71
2022/03/13 00:09:09;;;;;;;;;;;;;;;16.20;50.42;101118.69;1013813;29;733;-71
2022/03/13 00:09:59;;;;;;;;;;;;;;;16.20;50.49;101118.69;1013298;29;666;-71
2022/03/13 00:10:50;;;;;;;;;;;;;;;16.21;50.42;101119.56;1013572;29;718;-71
2022/03/13 00:11:40;;;;;;;;;;;;;;;16.21;49.97;101120.41;1013485;29;622;-71
2022/03/13 00:12:31;;;;;;;;;;;;;;;16.22;50.10;101121.25;1013473;29;717;-71
2022/03/13 00:13:22;;;;;;;;;;;;;;;16.21;50.10;101120.41;1012480;29;611;-71
2022/03/13 00:14:13;;;;;;;;;;;;;;;16.21;50.10;101117.72;1013298;29;707;-71
2022/03/13 00:15:05;;;;;;;;;;;;;;;16.18;50.46;101117.13;1013103;29;1607;-71
2022/03/13 00:15:57;;;;;;;;;;;;;;;16.19;50.34;101118.81;1009502;29;642;-71
2022/03/13 00:16:50;;;;;;;;;;;;;;;16.18;50.27;101122.50;1008728;29;658;-71
2022/03/13 00:17:41;;;;;;;;;;;;;;;16.17;50.10;101124.34;1009354;29;532;-71
2022/03/13 00:18:32;;;;;;;;;;;;;;;16.19;50.31;101125.06;1009853;29;667;-71
2022/03/13 00:19:24;;;;;;;;;;;;;;;16.15;50.45;101123.59;1009557;29;650;-70
2022/03/13 00:20:14;;;;;;;;;;;;;;;16.17;50.31;101118.97;1008914;29;638;-69
2022/03/13 00:21:04;;;;;;;;;;;;;;;16.17;50.21;101126.16;1009881;29;1927;-69
2022/03/13 00:21:55;;;;;;;;;;;;;;;16.18;50.27;101119.81;1009984;29;616;-69
2022/03/13 00:22:45;;;;;;;;;;;;;;;16.17;50.06;101124.34;1008930;29;655;-69
2022/03/13 00:23:36;;;;;;;;;;;;;;;16.17;50.28;101129.72;1009946;29;659;-69
2022/03/13 00:24:26;;;;;;;;;;;;;;;16.17;50.38;101129.72;1009938;29;647;-70
2022/03/13 00:25:17;;;;;;;;;;;;;;;16.17;50.35;101123.47;1010639;29;1605;-70
2022/03/13 00:26:07;;;;;;;;;;;;;;;16.18;50.00;101130.56;1013989;29;665;-70
2022/03/13 00:26:59;;;;;;;;;;;;;;;16.18;50.29;101122.50;1013334;29;689;-70
2022/03/13 00:27:50;;;;;;;;;;;;;;;16.15;50.17;101125.44;1012372;29;643;-70
2022/03/13 00:28:41;;;;;;;;;;;;;;;16.17;50.34;101123.47;1012603;29;655;-70
2022/03/13 00:29:31;;;;;;;;;;;;;;;16.15;50.41;101120.91;1012857;29;642;-70
2022/03/13 00:30:23;;;;;;;;;;;;;;;16.18;50.20;101117.97;1013195;29;698;-70
2022/03/13 00:31:13;;;;;;;;;;;;;;;16.14;50.24;101110.28;1011819;29;1560;-70
2022/03/13 00:32:03;;;;;;;;;;;;;;;16.17;50.46;101118.09;1012263;29;624;-70
2022/03/13 00:32:54;;;;;;;;;;;;;;;16.15;50.17;101120.91;1012654;29;671;-69
2022/03/13 00:33:44;;;;;;;;;;;;;;;16.15;50.32;101117.38;1012762;29;718;-70
2022/03/13 00:34:35;;;;;;;;;;;;;;;16.15;50.67;101115.53;1012610;29;623;-70
2022/03/13 00:35:25;;;;;;;;;;;;;;;16.13;50.51;101114.81;1010301;29;1563;-70
2022/03/13 00:36:16;;;;;;;;;;;;;;;16.12;50.53;101113.09;1009440;29;1093;-69
2022/03/13 00:37:07;;;;;;;;;;;;;;;16.10;50.46;101120.47;1009392;29;587;-69
2022/03/13 00:37:58;;;;;;;;;;;;;;;16.14;50.45;101118.34;1008717;29;643;-69
2022/03/13 00:38:48;;;;;;;;;;;;;;;16.11;50.19;101116.81;1009543;29;639;-69
2022/03/13 00:39:40;;;;;;;;;;;;;;;16.13;50.49;101112.13;1009030;29;725;-69
2022/03/13 00:40:30;;;;;;;;;;;;;;;16.14;50.23;101110.28;1009352;29;631;-69
2022/03/13 00:41:21;;;;;;;;;;;;;;;16.15;50.53;101117.38;1009243;29;631;-69
2022/03/13 00:42:12;;;;;;;;;;;;;;;16.13;50.33;101114.81;1009310;29;667;-69
2022/03/13 00:43:02;;;;;;;;;;;;;;;16.13;50.12;101117.50;1008926;29;873;-69
2022/03/13 00:43:53;;;;;;;;;;;;;;;16.14;50.43;101116.50;1009197;29;639;-70
2022/03/13 00:44:43;;;;;;;;;;;;;;;16.14;50.10;101113.81;1008922;29;741;-70
2022/03/13 00:45:34;;;;;;;;;;;;;;;16.13;50.47;101117.50;1012032;29;1643;-69
2022/03/13 00:46:25;;;;;;;;;;;;;;;16.13;50.52;101111.25;1012613;29;647;-69
2022/03/13 00:47:16;;;;;;;;;;;;;;;16.11;50.48;101114.13;1012709;29;693;-69
2022/03/13 00:48:07;;;;;;;;;;;;;;;16.11;50.54;101113.25;1012648;29;630;-69
2022/03/13 00:48:57;;;;;;;;;;;;;;;16.11;50.47;101107.88;1012763;29;667;-70
2022/03/13 00:49:48;;;;;;;;;;;;;;;16.11;50.61;101115.94;1012448;29;703;-69
2022/03/13 00:50:38;;;;;;;;;;;;;;;16.10;50.45;101104.34;1012666;29;655;-70
2022/03/13 00:51:28;;;;;;;;;;;;;;;16.08;50.55;101108.97;1012803;29;635;-69
2022/03/13 00:52:19;;;;;;;;;;;;;;;16.11;50.37;101108.72;1012619;29;671;-69
2022/03/13 00:53:09;;;;;;;;;;;;;;;16.10;50.21;101109.72;1012630;29;702;-70
2022/03/13 00:54:00;;;;;;;;;;;;;;;16.10;50.37;101114.25;1012540;29;663;-69
2022/03/13 00:54:50;;;;;;;;;;;;;;;16.08;50.48;101111.69;1012215;29;611;-69
2022/03/13 00:55:41;;;;;;;;;;;;;;;16.07;50.58;101109.97;1008765;29;1489;-70
2022/03/13 00:56:31;;;;;;;;;;;;;;;16.08;50.68;101111.69;1009227;29;611;-70
2022/03/13 00:57:22;;;;;;;;;;;;;;;16.08;50.68;101106.31;1008694;29;647;-69
2022/03/13 00:58:12;;;;;;;;;;;;;;;16.09;49.94;101108.00;1009266;29;631;-70
2022/03/13 00:59:03;;;;;;;;;;;;;;;16.09;50.49;101104.47;1009189;29;687;-70
2022/03/13 00:59:53;;;;;;;;;;;;;;;16.09;50.21;101104.47;1009222;29;702;-71
2022/03/13 01:00:44;;;;;;;;;;;;;;;16.10;50.77;101109.72;1009126;29;1899;-71
2022/03/13 01:01:34;;;;;;;;;;;;;;;16.09;50.24;101113.38;1009256;29;694;-70
2022/03/13 01:02:25;;;;;;;;;;;;;;;16.09;50.43;101115.22;1009227;29;682;-71
2022/03/13 01:03:15;;;;;;;;;;;;;;;16.08;50.61;101111.69;1009218;29;671;-71
2022/03/13 01:04:06;;;;;;;;;;;;;;;16.09;50.34;101110.69;1009344;29;698;-70
2022/03/13 01:04:56;;;;;;;;;;;;;;;16.08;49.85;101108.97;1009270;29;683;-70
2022/03/13 01:05:46;;;;;;;;;;;;;;;16.09;50.57;101104.47;1009210;29;1135;-70
2022/03/13 01:06:37;;;;;;;;;;;;;;;16.09;50.48;101109.84;1009167;29;686;-70
2022/03/13 01:07:28;;;;;;;;;;;;;;;16.08;50.50;101110.81;1011627;29;1662;-71
2022/03/13 01:08:19;;;;;;;;;;;;;;;16.08;50.47;101108.97;1008970;29;1220;-71
2022/03/13 01:09:09;;;;;;;;;;;;;;;16.06;50.49;101102.88;1009334;29;739;-73
2022/03/13 01:10:00;;;;;;;;;;;;;;;16.06;50.83;101105.56;1009757;29;639;-71
2022/03/13 01:10:50;;;;;;;;;;;;;;;16.05;50.54;101103.88;1009788;29;615;-71
2022/03/13 01:11:41;;;;;;;;;;;;;;;16.08;50.54;101097.38;1009443;29;623;-71
2022/03/13 01:12:31;;;;;;;;;;;;;;;16.07;50.44;101095.66;1009495;29;679;-70
2022/03/13 01:13:22;;;;;;;;;;;;;;;16.08;50.21;101100.06;1009758;29;560;-70
2022/03/13 01:14:12;;;;;;;;;;;;;;;16.08;50.62;101103.63;1009701;29;710;-70
2022/03/13 01:15:02;;;;;;;;;;;;;;;16.06;50.61;101102.88;1009653;29;643;-71
2022/03/13 01:15:53;;;;;;;;;;;;;;;16.05;50.42;101101.16;1009188;29;647;-71
2022/03/13 01:16:44;;;;;;;;;;;;;;;16.05;50.76;101098.47;1009729;29;853;-70
2022/03/13 01:17:35;;;;;;;;;;;;;;;16.06;50.22;101093.97;1008821;29;655;-70
2022/03/13 01:18:25;;;;;;;;;;;;;;;16.05;50.46;101103.88;1009175;29;624;-70
2022/03/13 01:19:16;;;;;;;;;;;;;;;16.05;50.35;101097.63;1009636;29;639;-69
2022/03/13 01:20:06;;;;;;;;;;;;;;;16.04;50.36;101091.41;1009692;29;632;-68
2022/03/13 01:20:57;;;;;;;;;;;;;;;16.04;50.74;101099.47;1008772;29;1903;-69
2022/03/13 01:21:47;;;;;;;;;;;;;;;16.03;50.36;101092.38;1009456;29;643;-68
2022/03/13 01:22:37;;;;;;;;;;;;;;;16.03;50.28;101087.00;1009737;29;624;-69
2022/03/13 01:23:28;;;;;;;;;;;;;;;16.03;50.26;101095.06;1009158;29;649;-69
2022/03/13 01:24:19;;;;;;;;;;;;;;;16.04;50.50;101091.41;1008724;29;714;-68
2022/03/13 01:25:09;;;;;;;;;;;;;;;16.03;50.49;101089.69;1009658;29;636;-69
2022/03/13 01:25:59;;;;;;;;;;;;;;;16.03;50.89;101091.53;1009192;29;683;-69
2022/03/13 01:26:50;;;;;;;;;;;;;;;16.03;50.32;101096.91;1009083;29;695;-68
2022/03/13 01:27:40;;;;;;;;;;;;;;;16.02;50.47;101087.97;1009669;29;658;-69
2022/03/13 01:28:31;;;;;;;;;;;;;;;16.02;50.60;101092.50;1009696;29;651;-69
2022/03/13 01:29:21;;;;;;;;;;;;;;;16.03;50.88;101095.06;1009597;29;678;-68
2022/03/13 01:30:14;;;;;;;;;;;;;;;16.03;50.46;101088.84;1008938;29;687;-68
2022/03/13 01:31:06;;;;;;;;;;;;;;;16.03;50.79;101088.84;1008768;29;836;-68
2022/03/13 01:31:57;;;;;;;;;;;;;;;16.01;50.66;101085.41;1009173;29;646;-68
2022/03/13 01:32:47;;;;;;;;;;;;;;;16.01;50.71;101094.34;1010264;29;694;-69
2022/03/13 01:33:39;;;;;;;;;;;;;;;16.00;50.90;101089.94;1010126;29;682;-69
2022/03/13 01:34:29;;;;;;;;;;;;;;;16.02;50.67;101084.44;1009630;29;619;-69
2022/03/13 01:35:20;;;;;;;;;;;;;;;16.02;50.32;101087.13;1009831;29;1616;-69
2022/03/13 01:36:10;;;;;;;;;;;;;;;16.02;50.32;101093.34;1009103;29;623;-69
2022/03/13 01:37:01;;;;;;;;;;;;;;;16.01;50.35;101085.41;1009105;29;655;-68
2022/03/13 01:37:51;;;;;;;;;;;;;;;16.01;50.62;101080.91;1009130;29;627;-68
2022/03/13 01:38:42;;;;;;;;;;;;;;;16.01;50.70;101093.47;1009120;29;620;-69
2022/03/13 01:39:32;;;;;;;;;;;;;;;16.00;50.28;101089.09;1009175;29;686;-69
2022/03/13 01:40:23;;;;;;;;;;;;;;;15.98;50.54;101082.00;1009053;29;768;-68
2022/03/13 01:41:13;;;;;;;;;;;;;;;16.00;50.61;101089.94;1009110;29;738;-70
2022/03/13 01:42:04;;;;;;;;;;;;;;;16.01;50.48;101091.66;1009057;29;647;-71
2022/03/13 01:42:55;;;;;;;;;;;;;;;16.01;50.52;101078.22;1008823;29;635;-71
2022/03/13 01:43:46;;;;;;;;;;;;;;;16.01;50.35;101080.03;1009065;29;686;-71
2022/03/13 01:44:36;;;;;;;;;;;;;;;16.01;50.37;101080.03;1009124;29;639;-71
2022/03/13 01:45:27;;;;;;;;;;;;;;;15.99;50.77;101077.47;1012285;29;1706;-71
2022/03/13 01:46:17;;;;;;;;;;;;;;;15.98;50.79;101079.31;1012350;29;694;-71
2022/03/13 01:47:09;;;;;;;;;;;;;;;15.98;50.61;101078.47;1012513;29;679;-71
2022/03/13 01:47:59;;;;;;;;;;;;;;;15.99;50.60;101082.84;1012458;29;631;-71
2022/03/13 01:48:50;;;;;;;;;;;;;;;15.98;50.77;101082.00;1012601;29;639;-71
2022/03/13 01:49:40;;;;;;;;;;;;;;;15.97;50.43;101077.59;1012420;29;659;-71
2022/03/13 01:50:30;;;;;;;;;;;;;;;15.97;50.82;101074.06;1012499;29;722;-71
2022/03/13 01:51:22;;;;;;;;;;;;;;;15.98;50.64;101070.41;1012266;29;662;-71
2022/03/13 01:52:12;;;;;;;;;;;;;;;15.97;50.75;101060.63;1012243;29;694;-71
2022/03/13 01:53:03;;;;;;;;;;;;;;;15.97;50.65;101068.69;1012476;29;663;-72
2022/03/13 01:53:53;;;;;;;;;;;;;;;15.97;50.37;101068.69;1012407;29;694;-71
2022/03/13 01:54:45;;;;;;;;;;;;;;;15.97;50.34;101066.84;1012461;29;750;-71
2022/03/13 01:55:36;;;;;;;;;;;;;;;15.97;50.77;101068.69;1008523;29;607;-71
2022/03/13 01:56:26;;;;;;;;;;;;;;;15.97;50.75;101063.31;1010086;29;647;-71
2022/03/13 01:57:17;;;;;;;;;;;;;;;15.98;50.54;101065.03;1010065;29;703;-71
2022/03/13 01:58:07;;;;;;;;;;;;;;;15.98;50.62;101060.50;1010096;29;616;-70
2022/03/13 01:58:58;;;;;;;;;;;;;;;15.96;50.88;101065.16;1009619;29;729;-71
2022/03/13 01:59:48;;;;;;;;;;;;;;;15.96;50.38;101059.78;1010174;29;679;-70
2022/03/13 02:00:38;;;;;;;;;;;;;;;15.96;50.80;101061.59;1010057;29;698;-71
2022/03/13 02:01:29;;;;;;;;;;;;;;;15.96;50.64;101051.72;1010078;29;675;-71
2022/03/13 02:02:20;;;;;;;;;;;;;;;15.96;50.63;101050.84;1010051;29;612;-71
2022/03/13 02:03:10;;;;;;;;;;;;;;;15.96;50.63;101043.66;1008429;29;624;-71
2022/03/13 02:04:00;;;;;;;;;;;;;;;15.97;50.83;101052.56;1009584;29;671;-71
2022/03/13 02:04:52;;;;;;;;;;;;;;;15.96;50.89;101049.03;1010077;29;612;-71
2022/03/13 02:05:48;;;;;;;;;;;;;;;15.96;50.57;101048.16;1008563;29;674;-70
2022/03/13 02:06:39;;;;;;;;;;;;;;;15.95;50.33;101041.94;1006217;29;626;-70
2022/03/13 02:07:30;;;;;;;;;;;;;;;15.95;50.96;101052.69;1009933;29;1679;-70
2022/03/13 02:08:20;;;;;;;;;;;;;;;15.95;50.64;101049.16;1004604;29;1251;-70
2022/03/13 02:09:11;;;;;;;;;;;;;;;15.94;50.57;101042.09;1005059;29;1529;-69
2022/03/13 02:10:01;;;;;;;;;;;;;;;15.96;50.38;101045.47;1005155;29;615;-70
2022/03/13 02:10:51;;;;;;;;;;;;;;;15.96;50.47;101045.47;1005221;29;780;-70
2022/03/13 02:11:42;;;;;;;;;;;;;;;15.94;50.80;101034.84;1005101;29;635;-69
2022/03/13 02:12:34;;;;;;;;;;;;;;;15.95;50.98;101033.03;1005209;29;711;-70
2022/03/13 02:13:24;;;;;;;;;;;;;;;15.94;50.65;101034.03;1005039;29;684;-70
2022/03/13 02:14:17;;;;;;;;;;;;;;;15.95;50.62;101033.03;1005175;29;754;-70
2022/03/13 02:15:07;;;;;;;;;;;;;;;15.95;50.66;101035.72;1005363;29;1545;-69
2022/03/13 02:15:58;;;;;;;;;;;;;;;15.95;50.66;101028.50;1005069;29;629;-70
2022/03/13 02:16:48;;;;;;;;;;;;;;;15.95;50.91;101030.34;1008572;29;710;-70
2022/03/13 02:17:39;;;;;;;;;;;;;;;15.94;50.56;101029.47;1009775;29;713;-71
2022/03/13 02:18:30;;;;;;;;;;;;;;;15.94;50.43;101032.16;1006215;29;1068;-69
2022/03/13 02:19:20;;;;;;;;;;;;;;;15.94;50.79;101025.97;1005630;29;659;-69
2022/03/13 02:20:11;;;;;;;;;;;;;;;15.94;50.56;101025.97;1005716;29;670;-69
2022/03/13 02:21:01;;;;;;;;;;;;;;;15.93;50.64;101025.13;1005125;29;1984;-69
2022/03/13 02:21:53;;;;;;;;;;;;;;;15.94;50.73;101023.28;1005228;29;686;-69
2022/03/13 02:22:44;;;;;;;;;;;;;;;15.92;50.78;101026.09;1005168;29;710;-69
2022/03/13 02:23:34;;;;;;;;;;;;;;;15.92;50.57;101026.09;1005100;29;686;-69
2022/03/13 02:24:24;;;;;;;;;;;;;;;15.92;50.70;101023.41;1005651;29;666;-69
2022/03/13 02:25:15;;;;;;;;;;;;;;;15.92;50.61;101023.41;1005946;29;1695;-69
2022/03/13 02:26:05;;;;;;;;;;;;;;;15.92;50.61;101027.94;1005225;29;663;-70
2022/03/13 02:26:56;;;;;;;;;;;;;;;15.92;50.74;101019.88;1005099;29;919;-69
2022/03/13 02:27:46;;;;;;;;;;;;;;;15.92;50.65;101011.81;1005064;29;671;-69
2022/03/13 02:28:37;;;;;;;;;;;;;;;15.92;50.63;101022.56;1005227;29;655;-70
2022/03/13 02:29:27;;;;;;;;;;;;;;;15.92;50.57;101019.88;1005079;29;648;-70
2022/03/13 02:30:18;;;;;;;;;;;;;;;15.92;50.72;101020.72;1005155;29;686;-70
2022/03/13 02:31:08;;;;;;;;;;;;;;;15.92;50.59;101019.88;1005122;29;647;-70
2022/03/13 02:31:58;;;;;;;;;;;;;;;15.93;50.92;101021.56;1005110;29;699;-70
2022/03/13 02:32:49;;;;;;;;;;;;;;;15.92;50.66;101023.41;1005243;29;698;-69
2022/03/13 02:33:39;;;;;;;;;;;;;;;15.93;50.42;101018.88;1005153;29;706;-69
2022/03/13 02:34:30;;;;;;;;;;;;;;;15.92;50.64;101015.34;1005109;29;710;-69
2022/03/13 02:35:20;;;;;;;;;;;;;;;15.91;50.55;101015.47;1005875;29;1640;-69
2022/03/13 02:36:10;;;;;;;;;;;;;;;15.91;51.00;101016.31;1009501;29;749;-69
2022/03/13 02:37:02;;;;;;;;;;;;;;;15.90;50.42;101017.31;1010100;29;631;-70
2022/03/13 02:37:52;;;;;;;;;;;;;;;15.90;50.88;101021.81;1010127;29;666;-70
2022/03/13 02:38:43;;;;;;;;;;;;;;;15.90;50.54;101020.00;1008645;29;656;-70
2022/03/13 02:39:35;;;;;;;;;;;;;;;15.90;50.97;101019.13;1009675;29;639;-70
2022/03/13 02:40:25;;;;;;;;;;;;;;;15.90;50.90;101013.75;1009937;29;635;-70
2022/03/13 02:41:16;;;;;;;;;;;;;;;15.90;50.62;101019.13;1009840;29;1968;-70
2022/03/13 02:42:06;;;;;;;;;;;;;;;15.90;50.47;101021.81;1009993;29;616;-70
2022/03/13 02:42:58;;;;;;;;;;;;;;;15.90;50.38;101013.75;1008854;29;718;-69
2022/03/13 02:43:48;;;;;;;;;;;;;;;15.90;50.73;101017.31;1010060;29;966;-70
2022/03/13 02:44:38;;;;;;;;;;;;;;;15.90;50.50;101016.44;1009930;29;635;-70
2022/03/13 02:45:29;;;;;;;;;;;;;;;15.90;50.47;101011.06;1006271;29;1683;-70
2022/03/13 02:46:22;;;;;;;;;;;;;;;15.91;50.93;101015.47;1005342;29;1497;-69
2022/03/13 02:47:12;;;;;;;;;;;;;;;15.90;50.61;101019.13;1005098;29;627;-70
2022/03/13 02:48:03;;;;;;;;;;;;;;;15.90;50.76;101016.44;1006197;29;655;-70
2022/03/13 02:48:53;;;;;;;;;;;;;;;15.90;50.96;101014.63;1006091;29;635;-70
2022/03/13 02:49:44;;;;;;;;;;;;;;;15.90;50.62;101013.75;1004629;29;667;-69
2022/03/13 02:50:34;;;;;;;;;;;;;;;15.90;50.50;101017.31;1005672;29;604;-70
2022/03/13 02:51:25;;;;;;;;;;;;;;;15.89;50.96;101009.38;1006201;29;698;-70
2022/03/13 02:52:15;;;;;;;;;;;;;;;15.88;50.55;101015.72;1004733;29;702;-70
2022/03/13 02:53:05;;;;;;;;;;;;;;;15.88;50.52;101005.84;1005887;29;663;-70
2022/03/13 02:53:56;;;;;;;;;;;;;;;15.88;50.94;101005.84;1006244;29;660;-70
2022/03/13 02:54:47;;;;;;;;;;;;;;;15.88;51.09;101007.66;1005639;29;678;-70
2022/03/13 02:55:37;;;;;;;;;;;;;;;15.88;50.79;100999.59;1008761;29;1592;-70
2022/03/13 02:56:27;;;;;;;;;;;;;;;15.88;51.07;101002.28;1008651;29;624;-69
2022/03/13 02:57:18;;;;;;;;;;;;;;;15.89;51.05;101006.69;1009608;29;647;-70
2022/03/13 02:58:08;;;;;;;;;;;;;;;15.87;50.60;101001.44;1010010;29;631;-70
2022/03/13 02:58:59;;;;;;;;;;;;;;;15.89;50.73;101004.00;1008461;29;652;-69
2022/03/13 02:59:49;;;;;;;;;;;;;;;15.87;51.02;101009.50;1009930;29;667;-70
2022/03/13 03:00:40;;;;;;;;;;;;;;;15.87;50.83;101000.59;1009910;29;643;-70
2022/03/13 03:01:30;;;;;;;;;;;;;;;15.87;50.83;101003.28;1010011;29;697;-70
2022/03/13 03:02:20;;;;;;;;;;;;;;;15.87;50.71;101004.13;1010071;29;706;-70
2022/03/13 03:03:11;;;;;;;;;;;;;;;15.86;51.39;100999.72;1009892;29;627;-70
2022/03/13 03:04:01;;;;;;;;;;;;;;;15.88;50.77;101004.97;1008415;29;639;-70
2022/03/13 03:04:54;;;;;;;;;;;;;;;15.86;51.04;101007.78;1009964;29;657;-70
2022/03/13 03:05:44;;;;;;;;;;;;;;;15.86;50.68;101006.94;1010179;29;1487;-68
2022/03/13 03:06:35;;;;;;;;;;;;;;;15.86;51.06;101013.16;1013689;29;644;-70
2022/03/13 03:07:25;;;;;;;;;;;;;;;15.86;50.85;101001.56;1012636;29;686;-70
2022/03/13 03:08:16;;;;;;;;;;;;;;;15.86;50.99;101001.56;1013768;29;1215;-70
2022/03/13 03:09:06;;;;;;;;;;;;;;;15.86;50.52;101001.56;1012144;29;655;-70
2022/03/13 03:09:57;;;;;;;;;;;;;;;15.86;50.97;101004.25;1012719;29;648;-70
2022/03/13 03:10:47;;;;;;;;;;;;;;;15.86;50.99;100996.19;1012124;29;655;-70
2022/03/13 03:11:38;;;;;;;;;;;;;;;15.87;50.68;101000.59;1012169;29;675;-70
2022/03/13 03:12:28;;;;;;;;;;;;;;;15.86;50.75;100996.19;1012084;29;632;-70
2022/03/13 03:13:20;;;;;;;;;;;;;;;15.87;50.68;101000.59;1012203;29;706;-70
2022/03/13 03:14:11;;;;;;;;;;;;;;;15.84;50.79;100993.63;1012033;29;639;-70
2022/03/13 03:15:02;;;;;;;;;;;;;;;15.85;50.79;100994.47;1011966;29;1536;-70
2022/03/13 03:15:52;;;;;;;;;;;;;;;15.86;50.79;100996.19;1008756;29;635;-70
2022/03/13 03:16:43;;;;;;;;;;;;;;;15.85;50.93;100999.84;1008879;29;639;-70
2022/03/13 03:17:33;;;;;;;;;;;;;;;15.86;50.79;101002.41;1008795;29;655;-70
2022/03/13 03:18:24;;;;;;;;;;;;;;;15.86;50.86;101006.94;1008833;29;675;-70
2022/03/13 03:19:14;;;;;;;;;;;;;;;15.85;50.52;101000.72;1008851;29;718;-69
2022/03/13 03:20:05;;;;;;;;;;;;;;;15.85;50.51;101003.41;1008852;29;650;-69
2022/03/13 03:20:56;;;;;;;;;;;;;;;15.85;50.62;101010.59;1008697;29;1910;-69
2022/03/13 03:21:46;;;;;;;;;;;;;;;15.84;50.66;101012.44;1008715;29;686;-69
2022/03/13 03:22:37;;;;;;;;;;;;;;;15.83;50.92;101001.81;1008766;29;723;-69
2022/03/13 03:23:27;;;;;;;;;;;;;;;15.84;50.57;101003.53;1008770;29;653;-69
2022/03/13 03:24:18;;;;;;;;;;;;;;;15.83;51.06;101007.19;1008678;29;699;-69
2022/03/13 03:25:08;;;;;;;;;;;;;;;15.84;50.86;101003.53;1009040;29;1575;-69
2022/03/13 03:25:59;;;;;;;;;;;;;;;15.83;50.96;101002.66;1008730;29;706;-69
2022/03/13 03:26:49;;;;;;;;;;;;;;;15.84;51.11;101004.38;1008203;29;619;-69
2022/03/13 03:27:39;;;;;;;;;;;;;;;15.85;51.00;101007.91;1008827;29;603;-71
2022/03/13 03:28:30;;;;;;;;;;;;;;;15.85;51.08;101010.59;1008746;29;651;-71
2022/03/13 03:29:20;;;;;;;;;;;;;;;15.84;50.80;101006.22;1008816;29;636;-70
2022/03/13 03:30:11;;;;;;;;;;;;;;;15.83;50.87;101007.19;1008874;29;667;-71
2022/03/13 03:31:01;;;;;;;;;;;;;;;15.83;50.57;101012.56;1008859;29;647;-71
2022/03/13 03:31:52;;;;;;;;;;;;;;;15.83;50.53;101004.50;1008746;29;655;-71
2022/03/13 03:32:42;;;;;;;;;;;;;;;15.82;50.79;101011.72;1008680;29;651;-71
2022/03/13 03:33:32;;;;;;;;;;;;;;;15.82;51.17;101006.34;1008764;29;620;-71
2022/03/13 03:34:23;;;;;;;;;;;;;;;15.83;50.77;101009.88;1008452;29;750;-71
2022/03/13 03:35:13;;;;;;;;;;;;;;;15.83;50.74;101012.56;1011911;29;1596;-71
2022/03/13 03:36:04;;;;;;;;;;;;;;;15.83;51.15;101012.56;1012129;29;658;-71
2022/03/13 03:36:54;;;;;;;;;;;;;;;15.83;50.84;101012.56;1012010;29;615;-71
2022/03/13 03:37:45;;;;;;;;;;;;;;;15.81;50.99;101015.38;1012174;29;742;-71
2022/03/13 03:38:35;;;;;;;;;;;;;;;15.82;50.94;101013.53;1011949;29;687;-71
2022/03/13 03:39:25;;;;;;;;;;;;;;;15.82;50.97;101016.22;1012339;29;615;-72
2022/03/13 03:40:16;;;;;;;;;;;;;;;15.81;50.67;101015.38;1011984;29;663;-71
2022/03/13 03:41:06;;;;;;;;;;;;;;;15.81;50.86;101014.53;1012001;29;1970;-71
2022/03/13 03:41:57;;;;;;;;;;;;;;;15.81;50.90;101015.38;1012151;29;683;-71
2022/03/13 03:42:48;;;;;;;;;;;;;;;15.81;50.99;101020.75;1012150;29;659;-71
2022/03/13 03:43:38;;;;;;;;;;;;;;;15.82;50.94;101018.91;1012051;29;615;-71
2022/03/13 03:44:29;;;;;;;;;;;;;;;15.82;50.92;101016.22;1012248;29;1060;-71
2022/03/13 03:45:19;;;;;;;;;;;;;;;15.81;51.08;101014.53;1008361;29;1521;-69
2022/03/13 03:46:09;;;;;;;;;;;;;;;15.80;50.78;101013.66;1008759;29;639;-70
2022/03/13 03:47:00;;;;;;;;;;;;;;;15.81;50.61;101019.91;1008778;29;643;-70
2022/03/13 03:47:50;;;;;;;;;;;;;;;15.79;51.04;101011.09;1008287;29;730;-70
2022/03/13 03:48:41;;;;;;;;;;;;;;;15.80;50.86;101012.81;1008274;29;730;-71
2022/03/13 03:49:33;;;;;;;;;;;;;;;15.79;51.18;101013.78;1008875;29;632;-70
2022/03/13 03:50:23;;;;;;;;;;;;;;;15.79;50.63;101013.78;1008271;29;640;-70
2022/03/13 03:51:14;;;;;;;;;;;;;;;15.79;50.53;101014.66;1008840;29;660;-70
2022/03/13 03:52:04;;;;;;;;;;;;;;;15.80;50.98;101015.50;1008744;29;691;-70
2022/03/13 03:52:56;;;;;;;;;;;;;;;15.79;50.91;101013.78;1008801;29;703;-70
2022/03/13 03:53:46;;;;;;;;;;;;;;;15.80;50.67;101010.13;1008227;29;632;-70
2022/03/13 03:54:37;;;;;;;;;;;;;;;15.79;50.83;101013.78;1008794;29;699;-70
2022/03/13 03:55:27;;;;;;;;;;;;;;;15.79;50.85;101016.47;1009229;29;628;-69
2022/03/13 03:56:18;;;;;;;;;;;;;;;15.79;50.89;101016.47;1009942;29;682;-69
2022/03/13 03:57:08;;;;;;;;;;;;;;;15.78;50.81;101012.09;1008692;29;683;-68
2022/03/13 03:57:58;;;;;;;;;;;;;;;15.77;51.14;101016.63;1009751;29;635;-68
2022/03/13 03:58:49;;;;;;;;;;;;;;;15.78;50.77;101021.00;1009716;29;639;-69
2022/03/13 03:59:39;;;;;;;;;;;;;;;15.78;51.12;101022.84;1009687;29;675;-71
2022/03/13 04:00:30;;;;;;;;;;;;;;;15.78;50.64;101009.41;1009820;29;638;-71
2022/03/13 04:01:20;;;;;;;;;;;;;;;15.78;50.74;101021.00;1009749;29;667;-71
2022/03/13 04:02:11;;;;;;;;;;;;;;;15.78;50.90;101020.16;1009783;29;635;-71
2022/03/13 04:03:01;;;;;;;;;;;;;;;15.78;50.82;101026.38;1009396;29;682;-71
2022/03/13 04:03:52;;;;;;;;;;;;;;;15.78;50.55;101020.16;1008672;29;675;-71
2022/03/13 04:04:42;;;;;;;;;;;;;;;15.78;50.68;101020.16;1009254;29;671;-71
2022/03/13 04:05:33;;;;;;;;;;;;;;;15.77;51.20;101024.66;1012132;29;729;-70
2022/03/13 04:06:23;;;;;;;;;;;;;;;15.76;50.94;101014.94;1012628;29;748;-70
2022/03/13 04:07:14;;;;;;;;;;;;;;;15.77;50.88;101015.75;1012887;29;639;-70
2022/03/13 04:08:04;;;;;;;;;;;;;;;15.77;50.60;101013.06;1010902;29;1266;-70
2022/03/13 04:08:55;;;;;;;;;;;;;;;15.75;50.69;101010.53;1010031;29;622;-70
2022/03/13 04:09:46;;;;;;;;;;;;;;;15.76;50.93;101014.94;1009864;29;750;-71
2022/03/13 04:10:37;;;;;;;;;;;;;;;15.76;51.25;101017.63;1009999;29;634;-71
2022/03/13 04:11:27;;;;;;;;;;;;;;;15.76;50.65;101011.41;1010560;29;713;-71
2022/03/13 04:12:18;;;;;;;;;;;;;;;15.76;51.10;101014.09;1009960;29;623;-70
2022/03/13 04:13:08;;;;;;;;;;;;;;;15.76;50.80;101011.41;1009978;29;618;-70
2022/03/13 04:13:59;;;;;;;;;;;;;;;15.76;51.22;101014.09;1010047;29;682;-71
2022/03/13 04:14:49;;;;;;;;;;;;;;;15.77;50.97;101015.75;1009891;29;630;-70
2022/03/13 04:15:40;;;;;;;;;;;;;;;15.76;51.20;101009.56;1009402;29;686;-71
2022/03/13 04:16:30;;;;;;;;;;;;;;;15.75;51.13;101010.53;1008793;29;627;-71
2022/03/13 04:17:20;;;;;;;;;;;;;;;15.75;50.89;101009.69;1009079;29;691;-71
2022/03/13 04:18:11;;;;;;;;;;;;;;;15.74;50.63;101007.97;1010080;29;651;-70
2022/03/13 04:19:01;;;;;;;;;;;;;;;15.75;50.65;101012.38;1012400;29;1647;-71
2022/03/13 04:19:52;;;;;;;;;;;;;;;15.74;50.79;101008.84;1012804;29;670;-71
2022/03/13 04:20:43;;;;;;;;;;;;;;;15.75;51.07;101005.16;1012595;29;702;-71
2022/03/13 04:21:34;;;;;;;;;;;;;;;15.75;50.99;101010.53;1012728;29;655;-70
2022/03/13 04:22:25;;;;;;;;;;;;;;;15.74;51.05;101014.22;1012763;29;718;-70
2022/03/13 04:23:15;;;;;;;;;;;;;;;15.75;51.18;101010.53;1012662;29;659;-71
2022/03/13 04:24:05;;;;;;;;;;;;;;;15.75;51.07;101015.06;1012822;29;682;-71
2022/03/13 04:24:56;;;;;;;;;;;;;;;15.74;50.81;101008.84;1012643;29;1666;-71
2022/03/13 04:25:47;;;;;;;;;;;;;;;15.74;50.59;101013.34;1009407;29;673;-69
2022/03/13 04:26:39;;;;;;;;;;;;;;;15.74;51.08;101002.59;1013507;29;690;-70